Time;durP1;ratioP1;P1;durP2;ratioP2;P2;SDS_P1;SDS_P2;PMS_P1;PMS_P2;Temp;Humidity;BMP_temperature;BMP_pressure;BME280_temperature;BME280_humidity;BME280_pressure;Samples;Min_cycle;Max_cycle;Signal;HPM_P1;HPM_P2
2021/07/01 00:02:01;;;;;;;28.40;15.77;;;14.50;97.30;;;;;;5056280;28;20044;-76
2021/07/01 00:04:27;;;;;;;24.20;15.57;;;14.50;97.00;;;;;;5072720;28;20028;-75
2021/07/01 00:06:53;;;;;;;37.63;16.08;;;14.50;97.10;;;;;;5072853;28;20036;-77
2021/07/01 00:09:21;;;;;;;33.60;15.38;;;14.50;97.00;;;;;;5072685;28;20530;-77
2021/07/01 00:11:49;;;;;;;30.25;16.70;;;14.50;97.10;;;;;;5072857;28;20032;-75
2021/07/01 00:14:18;;;;;;;30.58;15.60;;;14.50;97.10;;;;;;5072737;28;20025;-76
2021/07/01 00:16:44;;;;;;;28.85;15.25;;;14.40;97.00;;;;;;5071804;28;20032;-77
2021/07/01 00:19:09;;;;;;;30.88;16.40;;;14.50;97.10;;;;;;5072367;28;20159;-76
2021/07/01 00:21:35;;;;;;;25.70;14.95;;;14.50;97.40;;;;;;5072663;28;20107;-75
2021/07/01 00:24:04;;;;;;;29.42;15.98;;;14.50;97.10;;;;;;5072128;28;20496;-76
2021/07/01 00:26:30;;;;;;;24.40;15.57;;;14.50;97.10;;;;;;5073568;28;20395;-76
2021/07/01 00:28:56;;;;;;;23.20;14.07;;;14.40;97.10;;;;;;5072403;28;20033;-76
2021/07/01 00:31:22;;;;;;;22.35;12.73;;;14.50;97.10;;;;;;5072408;28;20465;-76
2021/07/01 00:33:48;;;;;;;24.38;13.32;;;14.40;97.10;;;;;;5055705;28;20017;-76
2021/07/01 00:36:13;;;;;;;22.98;13.48;;;14.50;97.10;;;;;;5073515;28;20111;-76
2021/07/01 00:38:39;;;;;;;32.13;14.93;;;14.50;97.10;;;;;;5073393;28;20037;-77
2021/07/01 00:41:04;;;;;;;25.95;13.65;;;14.50;97.00;;;;;;5073490;28;20029;-76
2021/07/01 00:43:30;;;;;;;37.28;15.57;;;14.50;97.00;;;;;;5073570;28;20032;-78
2021/07/01 00:45:56;;;;;;;35.35;15.18;;;14.50;97.00;;;;;;5055508;28;20028;-76
2021/07/01 00:48:21;;;;;;;27.75;14.95;;;14.40;97.00;;;;;;5072008;28;20060;-76
2021/07/01 00:50:49;;;;;;;27.52;14.52;;;14.40;96.90;;;;;;5072106;28;20370;-75
2021/07/01 00:53:15;;;;;;;32.42;13.20;;;14.40;96.90;;;;;;5073379;28;20078;-76
2021/07/01 00:55:40;;;;;;;25.63;14.98;;;14.40;96.90;;;;;;5072294;28;20387;-77
2021/07/01 00:58:06;;;;;;;29.70;15.40;;;14.40;96.90;;;;;;5072100;28;20035;-77
2021/07/01 01:02:58;;;;;;;23.25;13.80;;;14.40;96.90;;;;;;5072184;28;20127;-76
2021/07/01 01:05:24;;;;;;;27.95;15.13;;;14.40;96.90;;;;;;5071949;28;20032;-79
2021/07/01 01:07:50;;;;;;;29.20;15.10;;;14.40;96.80;;;;;;5055142;28;20060;-76
2021/07/01 01:10:18;;;;;;;30.83;14.65;;;14.40;96.80;;;;;;5073546;28;20537;-76
2021/07/01 01:12:44;;;;;;;29.88;14.38;;;14.40;96.70;;;;;;5071806;28;20013;-77
2021/07/01 01:15:10;;;;;;;28.10;13.57;;;14.40;96.80;;;;;;5071872;28;20017;-78
2021/07/01 01:17:36;;;;;;;22.60;13.02;;;14.40;96.80;;;;;;5071639;28;20092;-76
2021/07/01 01:20:06;;;;;;;23.67;13.07;;;14.40;96.80;;;;;;5055320;28;20059;-76
2021/07/01 01:22:31;;;;;;;26.88;12.18;;;14.40;96.80;;;;;;5073011;28;20077;-77
2021/07/01 01:24:57;;;;;;;30.00;12.77;;;14.40;96.80;;;;;;5071600;28;20040;-76
2021/07/01 01:27:23;;;;;;;22.95;12.73;;;14.40;96.80;;;;;;5072873;28;20118;-77
2021/07/01 01:29:49;;;;;;;22.38;11.73;;;14.40;96.80;;;;;;5076244;28;20112;-77
2021/07/01 01:32:15;;;;;;;26.27;11.63;;;14.40;96.90;;;;;;5076920;28;20033;-76
2021/07/01 01:34:41;;;;;;;23.95;11.68;;;14.40;96.90;;;;;;5075829;28;20032;-77
2021/07/01 01:37:10;;;;;;;19.13;11.20;;;14.40;96.90;;;;;;5075630;28;20037;-78
2021/07/01 01:39:35;;;;;;;28.65;11.27;;;14.40;96.80;;;;;;5075498;28;20036;-77
2021/07/01 01:42:01;;;;;;;23.45;10.90;;;14.40;96.80;;;;;;5076814;28;20392;-78
2021/07/01 01:44:27;;;;;;;22.48;11.07;;;14.40;97.00;;;;;;5077036;28;20060;-77
2021/07/01 01:46:52;;;;;;;20.52;10.05;;;14.40;96.70;;;;;;5058977;28;20043;-75
2021/07/01 01:49:20;;;;;;;22.67;10.70;;;14.30;96.70;;;;;;5076797;28;20036;-78
2021/07/01 01:51:47;;;;;;;22.30;9.68;;;14.40;96.70;;;;;;5075572;28;20036;-79
2021/07/01 01:54:12;;;;;;;18.38;8.55;;;14.40;96.60;;;;;;5076619;28;20429;-78
2021/07/01 01:56:47;;;;;;;18.33;8.05;;;14.30;96.50;;;;;;5076571;28;20167;-78
2021/07/01 01:59:13;;;;;;;16.48;7.35;;;14.30;96.50;;;;;;5076614;28;20032;-78
2021/07/01 02:01:40;;;;;;;17.17;7.50;;;14.40;96.60;;;;;;5058654;28;20036;-78
2021/07/01 02:04:05;;;;;;;15.18;7.78;;;14.30;96.60;;;;;;5058561;28;20032;-77
2021/07/01 02:06:33;;;;;;;15.20;6.88;;;14.40;96.60;;;;;;5076563;28;20035;-78
2021/07/01 02:09:00;;;;;;;14.65;7.05;;;14.30;96.50;;;;;;5058597;28;20051;-78
2021/07/01 02:11:26;;;;;;;12.55;6.60;;;14.30;96.50;;;;;;5074882;28;20082;-78
2021/07/01 02:13:52;;;;;;;18.38;6.93;;;14.30;96.50;;;;;;5058262;28;20020;-77
2021/07/01 02:16:17;;;;;;;12.98;6.20;;;14.30;96.50;;;;;;5058390;28;20392;-77
2021/07/01 02:18:45;;;;;;;16.30;6.57;;;14.30;96.50;;;;;;5058250;28;20469;-78
2021/07/01 02:21:10;;;;;;;20.02;7.60;;;14.30;96.50;;;;;;5074981;28;20035;-78
2021/07/01 02:23:36;;;;;;;14.85;7.40;;;14.30;96.40;;;;;;5058262;28;20029;-77
2021/07/01 02:26:02;;;;;;;21.02;8.43;;;14.20;96.30;;;;;;5074737;28;20072;-77
2021/07/01 02:28:27;;;;;;;18.35;8.18;;;14.30;96.40;;;;;;5074596;28;20020;-78
2021/07/01 02:30:53;;;;;;;17.05;8.02;;;14.20;96.40;;;;;;5076136;28;20031;-78
2021/07/01 02:33:19;;;;;;;14.43;7.03;;;14.30;96.30;;;;;;5074778;28;20032;-79
2021/07/01 02:35:44;;;;;;;16.00;6.82;;;14.20;96.30;;;;;;5074658;28;20031;-77
2021/07/01 02:38:10;;;;;;;24.23;7.57;;;14.20;96.30;;;;;;5075707;28;20048;-78
2021/07/01 02:40:36;;;;;;;16.55;7.82;;;14.20;96.40;;;;;;5056679;28;20404;-78
2021/07/01 02:43:01;;;;;;;21.30;6.90;;;14.20;96.40;;;;;;5074702;28;20103;-77
2021/07/01 02:45:27;;;;;;;17.17;7.68;;;14.20;96.40;;;;;;5075683;28;20429;-77
2021/07/01 02:47:52;;;;;;;19.88;8.68;;;14.20;96.40;;;;;;5074473;28;20043;-76
2021/07/01 02:50:18;;;;;;;19.50;7.35;;;14.10;96.40;;;;;;5074508;28;20108;-76
2021/07/01 02:52:44;;;;;;;20.80;9.30;;;14.10;96.40;;;;;;5074235;28;20112;-75
2021/07/01 02:55:10;;;;;;;19.58;7.43;;;14.10;96.50;;;;;;5074240;28;20384;-77
2021/07/01 02:57:37;;;;;;;17.77;8.05;;;14.10;96.50;;;;;;5075218;28;20028;-77
2021/07/01 03:00:07;;;;;;;21.08;8.10;;;14.10;96.60;;;;;;5075441;28;20020;-76
2021/07/01 03:02:33;;;;;;;19.00;8.07;;;14.10;96.60;;;;;;5074104;28;20049;-74
2021/07/01 03:04:59;;;;;;;19.48;8.57;;;14.00;96.60;;;;;;5075113;28;20078;-74
2021/07/01 03:07:24;;;;;;;17.00;8.15;;;14.00;96.60;;;;;;5073990;28;20029;-74
2021/07/01 03:09:50;;;;;;;26.13;9.60;;;14.00;96.70;;;;;;5073711;28;20024;-75
2021/07/01 03:12:15;;;;;;;24.98;8.90;;;14.00;96.70;;;;;;5074029;28;20415;-74
2021/07/01 03:14:41;;;;;;;19.83;9.60;;;14.00;96.80;;;;;;5075077;28;20104;-75
2021/07/01 03:17:07;;;;;;;20.60;8.82;;;13.90;96.80;;;;;;5073830;28;20024;-74
2021/07/01 03:19:32;;;;;;;19.98;8.93;;;13.90;96.80;;;;;;5057068;28;20449;-76
2021/07/01 03:21:58;;;;;;;24.25;8.40;;;13.90;96.90;;;;;;5073729;28;20029;-76
2021/07/01 03:24:24;;;;;;;22.15;8.73;;;13.90;97.20;;;;;;5056507;28;20060;-75
2021/07/01 03:26:49;;;;;;;26.60;9.95;;;13.90;97.00;;;;;;5073681;28;20115;-75
2021/07/01 03:29:15;;;;;;;22.27;9.38;;;13.90;97.00;;;;;;5074800;28;20433;-74
2021/07/01 03:31:40;;;;;;;27.63;8.65;;;13.90;97.00;;;;;;5073558;28;20033;-75
2021/07/01 03:34:06;;;;;;;24.23;10.13;;;13.80;97.00;;;;;;5073458;28;20035;-75
2021/07/01 03:36:32;;;;;;;17.70;8.68;;;13.90;97.00;;;;;;5073514;28;20032;-75
2021/07/01 03:39:02;;;;;;;20.65;8.38;;;13.90;97.00;;;;;;5073249;28;20078;-75
2021/07/01 03:41:28;;;;;;;25.58;9.52;;;14.00;97.00;;;;;;5073392;28;20033;-74
2021/07/01 03:43:54;;;;;;;23.48;9.18;;;14.00;97.00;;;;;;5073353;28;20500;-75
2021/07/01 03:46:20;;;;;;;21.95;10.07;;;14.00;97.00;;;;;;5073260;28;20069;-75
2021/07/01 03:48:45;;;;;;;23.40;8.00;;;14.10;97.00;;;;;;5073194;28;20033;-76
2021/07/01 03:51:11;;;;;;;16.27;7.78;;;14.00;97.00;;;;;;5074168;28;20052;-76
2021/07/01 03:53:36;;;;;;;24.90;7.82;;;14.00;97.00;;;;;;5073339;28;20414;-76
2021/07/01 03:56:02;;;;;;;21.63;9.93;;;14.10;97.00;;;;;;5072396;28;20025;-75
2021/07/01 03:58:28;;;;;;;26.25;8.68;;;14.10;96.90;;;;;;5055200;28;20028;-75
2021/07/01 04:00:54;;;;;;;21.27;8.68;;;14.00;96.90;;;;;;5075391;28;20115;-74
2021/07/01 04:03:19;;;;;;;21.58;8.18;;;14.00;96.90;;;;;;5092569;28;20039;-74
2021/07/01 04:05:45;;;;;;;19.17;8.48;;;14.00;96.90;;;;;;5091801;28;20391;-75
2021/07/01 04:08:11;;;;;;;17.02;9.20;;;14.00;96.90;;;;;;5092793;28;20030;-76
2021/07/01 04:10:36;;;;;;;17.55;7.90;;;14.00;96.90;;;;;;5093077;28;20472;-74
2021/07/01 04:13:02;;;;;;;25.00;10.63;;;14.10;96.90;;;;;;5093051;28;20028;-74
2021/07/01 04:15:28;;;;;;;24.08;10.70;;;14.10;96.90;;;;;;5093482;28;20109;-75
2021/07/01 04:17:54;;;;;;;20.35;10.10;;;14.10;96.90;;;;;;5094125;28;20024;-75
2021/07/01 04:20:19;;;;;;;22.35;9.52;;;14.00;96.90;;;;;;5092924;28;20501;-74
2021/07/01 04:22:45;;;;;;;24.73;10.13;;;14.10;96.90;;;;;;5092709;28;20410;-74
2021/07/01 04:25:11;;;;;;;26.92;10.68;;;14.10;96.90;;;;;;5072235;28;20044;-75
2021/07/01 04:27:37;;;;;;;25.20;10.05;;;14.00;96.90;;;;;;5093115;28;20117;-75
2021/07/01 04:30:04;;;;;;;25.27;10.27;;;14.00;97.10;;;;;;5091774;28;20477;-74
2021/07/01 04:32:29;;;;;;;20.65;9.27;;;14.00;96.90;;;;;;5094322;28;20463;-74
2021/07/01 04:34:55;;;;;;;18.50;9.25;;;14.00;96.90;;;;;;5092710;28;20078;-74
2021/07/01 04:37:21;;;;;;;18.65;8.85;;;14.00;96.90;;;;;;5075851;28;20138;-74
2021/07/01 04:39:46;;;;;;;20.38;9.93;;;14.00;96.90;;;;;;5091626;28;20458;-76
2021/07/01 04:42:13;;;;;;;19.00;9.48;;;14.00;96.90;;;;;;5075675;28;20043;-75
2021/07/01 04:44:38;;;;;;;22.25;10.23;;;14.00;96.90;;;;;;5092670;28;20115;-75
2021/07/01 04:47:04;;;;;;;19.10;8.70;;;14.00;96.90;;;;;;5093798;28;20082;-75
2021/07/01 04:49:30;;;;;;;22.25;9.88;;;14.00;96.80;;;;;;5075605;28;20043;-75
2021/07/01 04:51:55;;;;;;;22.45;9.85;;;14.00;96.90;;;;;;5093751;28;20383;-74
2021/07/01 04:54:21;;;;;;;22.83;11.07;;;13.90;96.80;;;;;;5093730;28;20020;-75
2021/07/01 04:56:47;;;;;;;24.08;10.48;;;13.90;96.70;;;;;;5092455;28;20499;-75
2021/07/01 04:59:17;;;;;;;24.20;10.25;;;13.90;96.70;;;;;;5093392;28;20028;-75
2021/07/01 05:01:44;;;;;;;21.73;10.90;;;13.80;96.70;;;;;;5092308;28;20036;-75
2021/07/01 05:04:11;;;;;;;24.33;10.68;;;13.90;96.70;;;;;;5092786;28;20032;-76
2021/07/01 05:06:38;;;;;;;26.38;11.20;;;13.90;96.70;;;;;;5093490;28;20040;-75
2021/07/01 05:09:05;;;;;;;23.67;10.93;;;13.90;96.70;;;;;;5075262;28;20389;-75
2021/07/01 05:11:31;;;;;;;24.88;10.73;;;13.90;96.60;;;;;;5092207;28;20475;-75
2021/07/01 05:13:57;;;;;;;20.98;9.95;;;13.80;96.90;;;;;;5093718;28;20056;-79
2021/07/01 05:16:24;;;;;;;16.35;9.85;;;13.80;96.90;;;;;;5075506;28;20389;-76
2021/07/01 05:18:49;;;;;;;29.70;11.23;;;13.80;96.50;;;;;;5093317;28;20040;-75
2021/07/01 05:21:15;;;;;;;23.73;9.43;;;13.80;96.60;;;;;;5075141;28;20098;-75
2021/07/01 05:23:41;;;;;;;21.70;9.55;;;13.80;96.60;;;;;;5092134;28;20403;-76
2021/07/01 05:26:06;;;;;;;20.90;9.50;;;13.80;96.60;;;;;;5093070;28;20060;-76
2021/07/01 05:28:32;;;;;;;20.75;9.45;;;13.90;96.60;;;;;;5075028;28;20505;-77
2021/07/01 05:30:58;;;;;;;20.25;9.73;;;13.80;96.60;;;;;;5092064;28;20032;-76
2021/07/01 05:33:23;;;;;;;26.13;10.75;;;13.80;96.60;;;;;;5091958;28;20063;-76
2021/07/01 05:35:49;;;;;;;23.20;9.85;;;13.80;96.60;;;;;;5093083;28;20035;-75
2021/07/01 05:38:14;;;;;;;25.48;10.20;;;13.90;96.60;;;;;;5093098;28;20032;-75
2021/07/01 05:40:40;;;;;;;23.70;11.02;;;13.90;96.60;;;;;;5091993;28;20043;-76
2021/07/01 05:43:07;;;;;;;24.15;10.25;;;13.90;96.60;;;;;;5091903;28;20032;-76
2021/07/01 05:45:33;;;;;;;22.45;10.63;;;13.90;96.60;;;;;;5093103;28;20467;-75
2021/07/01 05:47:59;;;;;;;26.60;10.40;;;13.90;96.60;;;;;;5091730;28;20051;-76
2021/07/01 05:50:24;;;;;;;28.42;10.90;;;13.90;96.60;;;;;;5092151;28;20032;-75
2021/07/01 05:52:58;;;;;;;23.92;10.48;;;13.90;96.70;;;;;;5091753;28;20139;-75
2021/07/01 05:55:24;;;;;;;25.40;11.05;;;13.90;96.80;;;;;;5076149;28;20123;-75
2021/07/01 05:57:50;;;;;;;21.88;10.73;;;13.90;96.80;;;;;;5092896;28;20107;-75
2021/07/01 06:00:17;;;;;;;24.85;10.38;;;13.90;97.10;;;;;;5091793;28;20032;-75
2021/07/01 06:02:45;;;;;;;24.88;8.93;;;13.90;96.80;;;;;;5091475;28;20058;-75
2021/07/01 06:05:11;;;;;;;21.52;10.30;;;13.90;96.90;;;;;;5092690;28;20024;-76
2021/07/01 06:07:40;;;;;;;24.08;10.18;;;13.90;96.90;;;;;;5091424;28;20093;-75
2021/07/01 06:10:06;;;;;;;21.20;9.88;;;13.90;97.20;;;;;;5092682;28;20023;-76
2021/07/01 06:12:34;;;;;;;19.30;9.32;;;13.90;96.90;;;;;;5092892;28;20035;-76
2021/07/01 06:15:02;;;;;;;19.05;11.18;;;13.90;97.00;;;;;;5092958;28;20019;-75
2021/07/01 06:17:33;;;;;;;15.88;9.57;;;13.90;96.90;;;;;;5095108;28;20024;-74
2021/07/01 06:20:05;;;;;;;19.35;10.05;;;13.90;97.00;;;;;;5096460;28;20016;-74
2021/07/01 06:22:31;;;;;;;19.77;9.88;;;13.90;97.00;;;;;;5096337;28;20016;-75
2021/07/01 06:24:58;;;;;;;22.40;10.85;;;13.90;97.30;;;;;;5095139;28;20476;-74
2021/07/01 06:27:36;;;;;;;16.25;9.77;;;13.90;97.10;;;;;;5096234;28;20032;-75
2021/07/01 06:30:30;;;;;;;18.85;9.65;;;14.00;97.10;;;;;;5079162;28;20024;-75
2021/07/01 06:32:55;;;;;;;20.20;9.32;;;14.00;97.10;;;;;;5095823;28;20027;-76
2021/07/01 06:35:25;;;;;;;21.10;9.32;;;14.00;97.10;;;;;;5094851;28;20032;-75
2021/07/01 06:37:55;;;;;;;23.52;9.15;;;14.00;97.10;;;;;;5096015;28;20036;-77
2021/07/01 06:40:23;;;;;;;25.85;10.27;;;14.10;97.20;;;;;;5096098;28;20020;-77
2021/07/01 06:42:54;;;;;;;22.77;9.77;;;14.10;97.20;;;;;;5095963;28;20016;-74
2021/07/01 06:45:21;;;;;;;26.50;10.90;;;14.10;97.20;;;;;;5095914;28;20016;-75
2021/07/01 06:47:48;;;;;;;25.05;10.57;;;14.20;97.20;;;;;;5094967;28;20040;-75
2021/07/01 06:50:16;;;;;;;23.80;10.55;;;14.20;97.10;;;;;;5094805;28;20052;-75
2021/07/01 06:52:46;;;;;;;18.92;9.23;;;14.30;97.10;;;;;;5077975;28;20016;-74
2021/07/01 06:55:15;;;;;;;27.52;11.75;;;14.30;97.00;;;;;;5094950;28;20028;-77
2021/07/01 06:57:42;;;;;;;21.42;10.23;;;14.30;97.00;;;;;;5094525;28;20017;-75
2021/07/01 07:00:13;;;;;;;28.10;11.65;;;14.30;96.90;;;;;;5094548;28;20052;-77
2021/07/01 07:02:42;;;;;;;24.35;10.55;;;14.30;96.90;;;;;;5094445;28;20031;-74
2021/07/01 07:05:11;;;;;;;23.90;9.90;;;14.30;96.90;;;;;;5094622;28;20018;-74
2021/07/01 07:07:39;;;;;;;21.88;9.95;;;14.30;96.90;;;;;;5095724;28;20028;-79
2021/07/01 07:10:06;;;;;;;17.27;9.73;;;14.30;96.90;;;;;;5095726;28;20129;-76
2021/07/01 07:12:44;;;;;;;21.38;10.95;;;14.30;96.90;;;;;;5094372;28;20085;-75
2021/07/01 07:15:13;;;;;;;22.70;10.88;;;14.40;96.90;;;;;;5095597;28;20107;-75
2021/07/01 07:17:40;;;;;;;18.75;9.63;;;14.40;96.90;;;;;;5095398;28;20020;-75
2021/07/01 07:20:07;;;;;;;20.42;10.25;;;14.40;96.90;;;;;;5095429;28;20032;-75
2021/07/01 07:22:41;;;;;;;17.88;9.45;;;14.50;96.90;;;;;;5095387;28;20031;-78
2021/07/01 07:25:10;;;;;;;19.05;9.32;;;14.50;96.90;;;;;;5093917;28;20123;-74
2021/07/01 07:27:38;;;;;;;19.75;10.15;;;14.50;96.80;;;;;;5093351;28;20379;-74
2021/07/01 07:30:05;;;;;;;26.58;10.25;;;14.50;96.80;;;;;;5093799;28;20444;-75
2021/07/01 07:32:32;;;;;;;24.80;10.02;;;14.60;96.70;;;;;;5095131;28;20560;-75
2021/07/01 07:34:57;;;;;;;20.88;9.57;;;14.50;96.90;;;;;;5095056;28;20526;-75
2021/07/01 07:37:23;;;;;;;21.35;10.10;;;14.60;96.70;;;;;;5093732;28;20055;-78
2021/07/01 07:39:50;;;;;;;28.35;10.73;;;14.60;96.60;;;;;;5094875;28;20028;-76
2021/07/01 07:42:18;;;;;;;21.98;8.82;;;14.60;96.60;;;;;;5093655;28;20027;-75
2021/07/01 07:44:44;;;;;;;19.33;8.95;;;14.60;96.60;;;;;;5094898;28;20028;-76
2021/07/01 07:47:11;;;;;;;20.00;9.27;;;14.60;96.60;;;;;;5093529;28;20032;-75
2021/07/01 07:49:37;;;;;;;20.15;9.43;;;14.70;96.50;;;;;;5094848;28;20503;-75
2021/07/01 07:52:06;;;;;;;21.00;9.60;;;14.70;96.80;;;;;;5093677;28;20028;-75
2021/07/01 07:54:44;;;;;;;26.80;11.07;;;14.70;96.60;;;;;;5093545;28;20432;-76
2021/07/01 07:57:11;;;;;;;19.08;8.93;;;14.70;96.60;;;;;;5094668;28;20032;-76
2021/07/01 07:59:38;;;;;;;26.73;9.48;;;14.70;96.60;;;;;;5094589;28;20051;-77
2021/07/01 08:02:05;;;;;;;25.67;9.32;;;14.70;96.60;;;;;;5093283;28;20539;-75
2021/07/01 08:04:34;;;;;;;19.88;9.57;;;14.70;96.50;;;;;;5093236;28;20030;-75
2021/07/01 08:07:02;;;;;;;28.52;11.23;;;14.70;96.60;;;;;;5094514;28;20030;-75
2021/07/01 08:09:29;;;;;;;19.20;9.73;;;14.80;96.60;;;;;;5094343;28;20379;-76
2021/07/01 08:11:57;;;;;;;17.25;8.85;;;14.80;96.60;;;;;;5094380;28;20748;-76
2021/07/01 08:14:23;;;;;;;30.40;11.98;;;14.70;96.50;;;;;;5093065;28;20032;-76
2021/07/01 08:16:49;;;;;;;17.73;8.98;;;14.80;96.60;;;;;;5093159;28;20028;-76
2021/07/01 08:19:16;;;;;;;28.15;10.27;;;14.80;96.60;;;;;;5094255;28;20032;-77
2021/07/01 08:21:41;;;;;;;18.92;9.98;;;14.80;96.80;;;;;;5094183;28;20036;-76
2021/07/01 08:24:11;;;;;;;16.65;8.77;;;14.80;96.50;;;;;;5094196;28;20382;-75
2021/07/01 08:26:36;;;;;;;19.58;9.65;;;14.90;96.50;;;;;;5093928;28;20177;-76
2021/07/01 08:29:03;;;;;;;21.00;10.05;;;14.90;96.50;;;;;;5092883;28;20126;-76
2021/07/01 08:31:31;;;;;;;22.63;9.73;;;15.00;96.80;;;;;;5092895;28;20293;-77
2021/07/01 08:34:03;;;;;;;22.67;9.05;;;15.00;96.50;;;;;;5092623;28;20031;-76
2021/07/01 08:36:33;;;;;;;26.10;11.70;;;15.00;96.40;;;;;;5093972;28;20055;-77
2021/07/01 08:38:58;;;;;;;29.75;11.50;;;15.00;96.30;;;;;;5091772;28;20028;-77
2021/07/01 08:41:29;;;;;;;24.02;11.00;;;15.00;96.30;;;;;;5092582;28;20039;-76
2021/07/01 08:44:08;;;;;;;23.98;10.68;;;15.10;96.30;;;;;;5092616;28;20036;-76
2021/07/01 08:47:06;;;;;;;35.13;10.45;;;15.10;96.30;;;;;;5093808;28;20040;-77
2021/07/01 08:49:34;;;;;;;27.52;10.95;;;15.10;96.30;;;;;;5093658;28;20032;-77
2021/07/01 08:52:06;;;;;;;26.10;10.27;;;15.10;96.20;;;;;;5093779;28;20016;-77
2021/07/01 08:54:36;;;;;;;23.98;9.70;;;15.10;96.20;;;;;;5092426;28;20032;-77
2021/07/01 08:57:04;;;;;;;26.80;10.85;;;15.10;96.20;;;;;;5092559;28;20089;-77
2021/07/01 08:59:54;;;;;;;28.52;10.65;;;15.10;96.20;;;;;;5093624;28;20035;-76
2021/07/01 09:02:24;;;;;;;25.17;11.25;;;15.20;96.20;;;;;;5093407;28;20038;-75
2021/07/01 09:04:55;;;;;;;23.20;10.23;;;15.10;96.10;;;;;;5092390;28;20043;-76
2021/07/01 09:07:23;;;;;;;29.33;11.30;;;15.10;96.40;;;;;;5093449;28;20042;-76
2021/07/01 09:09:57;;;;;;;29.52;11.32;;;15.10;96.10;;;;;;5091966;28;20498;-75
2021/07/01 09:12:26;;;;;;;27.08;11.32;;;15.10;96.20;;;;;;5093478;28;20424;-76
2021/07/01 09:15:11;;;;;;;23.67;10.68;;;15.20;96.20;;;;;;5092068;28;20559;-76
2021/07/01 09:17:40;;;;;;;28.05;12.60;;;15.20;96.10;;;;;;5092201;28;20103;-75
2021/07/01 09:20:08;;;;;;;22.38;10.38;;;15.20;96.10;;;;;;5092126;28;20046;-75
2021/07/01 09:22:35;;;;;;;30.15;10.93;;;15.20;96.00;;;;;;5091854;28;20078;-76
2021/07/01 09:25:01;;;;;;;32.50;12.63;;;15.30;95.90;;;;;;5091823;28;20047;-75
2021/07/01 09:27:27;;;;;;;23.42;10.27;;;15.30;95.90;;;;;;5093289;28;20023;-75
2021/07/01 09:29:54;;;;;;;29.35;10.43;;;15.40;96.00;;;;;;5075206;28;20024;-77
2021/07/01 09:32:21;;;;;;;27.73;11.52;;;15.40;95.90;;;;;;5092051;28;20035;-76
2021/07/01 09:34:48;;;;;;;30.50;11.18;;;15.30;95.70;;;;;;5091900;28;20016;-77
2021/07/01 09:37:15;;;;;;;35.05;11.73;;;15.30;95.70;;;;;;5091878;28;20024;-76
2021/07/01 09:39:42;;;;;;;28.30;11.60;;;15.40;95.60;;;;;;5091961;28;20028;-76
2021/07/01 09:42:09;;;;;;;31.05;13.05;;;15.40;95.60;;;;;;5093061;28;20499;-75
2021/07/01 09:44:37;;;;;;;30.63;10.80;;;15.40;95.60;;;;;;5091762;28;20593;-75
2021/07/01 09:47:06;;;;;;;23.08;10.40;;;15.40;95.60;;;;;;5093124;28;20023;-75
2021/07/01 09:49:37;;;;;;;28.23;11.43;;;15.40;95.60;;;;;;5092690;28;20020;-75
2021/07/01 09:52:09;;;;;;;31.25;12.40;;;15.40;95.60;;;;;;5097108;28;20471;-76
2021/07/01 09:54:36;;;;;;;29.77;11.85;;;15.40;95.70;;;;;;5097013;28;20026;-75
2021/07/01 09:57:24;;;;;;;32.85;11.95;;;15.40;95.70;;;;;;5096984;28;20479;-75
2021/07/01 09:59:54;;;;;;;28.60;11.75;;;15.40;95.80;;;;;;5096906;28;20027;-75
2021/07/01 10:02:21;;;;;;;28.17;12.38;;;15.30;95.90;;;;;;5095619;28;20036;-75
2021/07/01 10:04:48;;;;;;;27.92;11.45;;;15.30;95.90;;;;;;5095791;28;20571;-76
2021/07/01 10:07:22;;;;;;;29.00;13.07;;;15.30;96.00;;;;;;5095515;28;20492;-76
2021/07/01 10:09:50;;;;;;;;;;;15.30;96.00;;;;;;5095788;28;20111;-74
2021/07/01 10:12:28;;;;;;;28.13;13.57;;;15.30;96.10;;;;;;5095444;28;19965;-73
2021/07/01 10:15:00;;;;;;;29.63;11.82;;;15.30;96.20;;;;;;5096876;28;20012;-74
2021/07/01 10:17:27;;;;;;;34.50;13.73;;;15.30;96.30;;;;;;5096685;28;20016;-74
2021/07/01 10:20:07;;;;;;;33.25;11.63;;;15.30;96.40;;;;;;5095315;28;20085;-77
2021/07/01 10:22:40;;;;;;;31.20;12.18;;;15.30;96.40;;;;;;5095157;28;20483;-75
2021/07/01 10:25:08;;;;;;;29.90;12.95;;;15.30;96.40;;;;;;5078230;28;20093;-74
2021/07/01 10:27:36;;;;;;;32.42;12.57;;;15.30;96.50;;;;;;5095064;28;20062;-75
2021/07/01 10:30:12;;;;;;;29.45;12.50;;;15.30;96.40;;;;;;5096209;28;20056;-74
2021/07/01 10:32:46;;;;;;;30.65;13.10;;;15.30;96.50;;;;;;5096354;28;20430;-74
2021/07/01 10:35:18;;;;;;;;;;;15.40;96.80;;;;;;5096667;28;20063;-74
2021/07/01 10:37:55;;;;;;;25.42;11.07;;;15.40;96.60;;;;;;5096093;28;19908;-73
2021/07/01 10:40:21;;;;;;;30.27;12.20;;;15.40;96.50;;;;;;5096196;28;20012;-74
2021/07/01 10:42:51;;;;;;;33.17;11.93;;;15.40;96.50;;;;;;5095052;28;20148;-74
2021/07/01 10:45:18;;;;;;;27.73;12.48;;;15.40;96.50;;;;;;5077921;28;20110;-73
2021/07/01 10:47:44;;;;;;;24.90;11.77;;;15.40;96.50;;;;;;5096043;28;20028;-74
2021/07/01 10:50:18;;;;;;;28.38;12.73;;;15.40;96.50;;;;;;5094691;28;20032;-74
2021/07/01 10:52:45;;;;;;;24.80;12.32;;;15.40;96.50;;;;;;5095937;28;20031;-74
2021/07/01 10:55:12;;;;;;;24.95;12.40;;;15.50;96.60;;;;;;5094627;28;20131;-75
2021/07/01 10:57:48;;;;;;;24.63;11.45;;;15.60;96.60;;;;;;5077645;28;20028;-75
2021/07/01 11:00:14;;;;;;;25.83;11.70;;;15.60;96.50;;;;;;5095721;28;20023;-75
2021/07/01 11:02:46;;;;;;;29.48;12.55;;;15.60;96.50;;;;;;5076696;28;20043;-74
2021/07/01 11:05:12;;;;;;;29.15;13.68;;;15.60;96.50;;;;;;5094340;28;20032;-75
2021/07/01 11:07:43;;;;;;;30.58;12.15;;;15.70;96.50;;;;;;5077563;28;20101;-76
2021/07/01 11:10:10;;;;;;;30.55;11.75;;;15.70;96.50;;;;;;5094240;28;20486;-74
2021/07/01 11:12:47;;;;;;;31.30;12.70;;;15.70;96.50;;;;;;5094501;28;20029;-74
2021/07/01 11:15:13;;;;;;;26.23;11.57;;;15.70;96.40;;;;;;5095622;28;20032;-75
2021/07/01 11:17:41;;;;;;;27.23;12.05;;;15.80;96.40;;;;;;5094226;28;20100;-76
2021/07/01 11:20:20;;;;;;;25.63;11.93;;;15.80;96.40;;;;;;5095487;28;20039;-74
2021/07/01 11:22:51;;;;;;;27.30;11.73;;;15.90;96.40;;;;;;5093972;28;20106;-74
2021/07/01 11:25:24;;;;;;;26.50;11.55;;;15.90;96.30;;;;;;5093996;28;20496;-75
2021/07/01 11:27:50;;;;;;;28.88;13.40;;;15.90;96.30;;;;;;5093897;28;20020;-76
2021/07/01 11:30:25;;;;;;;29.05;12.30;;;15.90;96.20;;;;;;5095289;28;20027;-75
2021/07/01 11:33:15;;;;;;;24.88;11.38;;;15.80;96.20;;;;;;5094010;28;20103;-76
2021/07/01 11:35:41;;;;;;;32.08;12.77;;;15.90;96.20;;;;;;5095169;28;20012;-76
2021/07/01 11:38:30;;;;;;;20.02;10.55;;;15.90;96.20;;;;;;5076753;28;20030;-76
2021/07/01 11:41:00;;;;;;;19.85;11.15;;;15.90;96.50;;;;;;5093766;28;20136;-75
2021/07/01 11:43:26;;;;;;;25.58;10.88;;;15.90;96.20;;;;;;5094937;28;20028;-75
2021/07/01 11:45:53;;;;;;;23.75;11.05;;;16.00;96.20;;;;;;5093609;28;20387;-75
2021/07/01 11:48:24;;;;;;;26.45;11.45;;;16.00;96.20;;;;;;5093676;28;20039;-75
2021/07/01 11:50:52;;;;;;;19.92;10.50;;;16.10;96.10;;;;;;5094895;28;20020;-75
2021/07/01 11:53:19;;;;;;;22.38;11.65;;;16.10;96.10;;;;;;5093497;28;20028;-77
2021/07/01 11:55:47;;;;;;;24.00;12.15;;;16.10;96.10;;;;;;5067515;28;20078;-76
2021/07/01 11:58:14;;;;;;;23.58;10.75;;;16.20;96.10;;;;;;5050848;28;20033;-76
2021/07/01 12:00:41;;;;;;;30.65;11.43;;;16.20;96.00;;;;;;5079967;28;20024;-75
2021/07/01 12:03:07;;;;;;;23.23;10.60;;;16.30;96.00;;;;;;5059946;28;20493;-75
2021/07/01 12:05:34;;;;;;;20.75;9.18;;;16.30;95.50;;;;;;5072686;28;20051;-75
2021/07/01 12:08:02;;;;;;;18.65;8.20;;;16.40;95.30;;;;;;5066416;28;20024;-76
2021/07/01 12:10:28;;;;;;;21.65;8.50;;;16.40;95.10;;;;;;5073976;28;20036;-75
2021/07/01 12:12:55;;;;;;;21.95;8.43;;;16.50;94.90;;;;;;5069139;28;20024;-79
2021/07/01 12:15:21;;;;;;;22.73;8.57;;;16.60;94.80;;;;;;5054832;28;20024;-77
2021/07/01 12:18:00;;;;;;;21.63;9.18;;;16.60;94.80;;;;;;5071722;28;20486;-78
2021/07/01 12:20:40;;;;;;;23.95;7.85;;;16.70;94.70;;;;;;5073806;28;20073;-78
2021/07/01 12:23:12;;;;;;;17.80;6.75;;;16.80;94.20;;;;;;5073931;28;20021;-77
2021/07/01 12:25:37;;;;;;;17.05;7.32;;;16.90;94.20;;;;;;5073767;28;20079;-77
2021/07/01 12:28:06;;;;;;;16.00;6.85;;;17.00;94.20;;;;;;5072819;28;20048;-77
2021/07/01 12:31:04;;;;;;;14.57;6.97;;;17.10;94.10;;;;;;5073780;28;20092;-75
2021/07/01 12:33:40;;;;;;;18.73;6.80;;;17.20;93.80;;;;;;5073682;28;20029;-75
2021/07/01 12:36:10;;;;;;;15.52;6.55;;;17.40;93.60;;;;;;5072269;28;20024;-76
2021/07/01 12:38:38;;;;;;;15.68;6.78;;;17.40;93.40;;;;;;5073568;28;20078;-78